Pagrindinis puslapis
METAR-TAF:

METAR-TAF

Oro uostai :

Urmija, Iranas

platuma: 37-32N, ilguma: 045-05E, Aukštis: 1297 m

Dabartinis oras

Ataskaita buvo paskelbta 11 minutes, ne 17:00 UTC
Vėjas 4 kt iš Vakarų/Pietvakarių
Temperatūra 10°C
Drėgmė 71%
Slėgis 1023 hPa
Matomumas 10 km arba daugiau
nėra debesų žemiau 1500 m ir nėra kamuolinių lietaus debesų

METAR: OITR 221700Z 25004KT CAVOK 10/05 Q1023

Laikas: 20:41 (17:11 UTC)

Prognozė

Ataskaita buvo paskelbta 5 valandos ir 21 minutes, ne 11:50 UTC
Prognozė galioja nuo 22 metu 12 UTC su 23 metu 18 UTC
Vėjas 6 kt iš Rytų
Matomumas: 8000 m

TAF: OITR 221150Z 2212/2318 09006KT 8000 NSC

Orai ataskaitas ir orų prognozės (METAR, TAF).

turimą stotys yra geltonos ir raudonos taškus žemėlapyje.

Perkelti pele per norėdami pamatyti stoties vardą.

Tada spustelėkite, norėdami matyti oro stebėjimo ir prognozės.

Norėdami pakeisti žemėlapį: spustelėkite ant žalios mygtukų su juodo kryžiaus žemyn,; žalią mygtuką su brūkšneliu, jei norite nutolinti; arba žalių rodyklių gretimoms žemėlapius.


METAR-TAF: